Estación Meteorológica Peña el Pijo (Robertgarden) [ 02/03/23 03:14:15 CET ]

Fecha Hora Presion(HPa) Temp (°C) Humedad % Rocio (°C) Viento ( m/s) Direccion Lluvia 1Hora(mm) Lluvia 24H(mm) LLuvia Total(mm)
2012-Oct-28 01:01:11 1002.300 8.1 92 6.9         178.19
2012-Oct-28 02:01:13 1003.400 6.1 88 4.3         178.19
2012-Oct-28 03:01:16 1004.500 3.4 84 0.9         178.19
2012-Oct-28 04:01:14 1004.600 2.4 87 0.4         178.19
2012-Oct-28 05:01:13 1005.000 1.5 84 -1.0         178.19
2012-Oct-28 06:01:13 1005.900 0.3 88 -1.4         178.19
2012-Oct-28 07:01:14 1006.400 -0.4 90 -1.8         178.19
2012-Oct-28 08:01:12 1007.200 -0.9 91 -2.2         178.19
2012-Oct-28 09:01:14 1008.000 2.6 92 1.4         178.19
2012-Oct-28 10:01:16 1008.200 7.1 56 -1.1         178.19
2012-Oct-28 11:01:14 1008.200 7.6 41 -4.9         178.19
2012-Oct-28 12:01:13 1008.100 9.3 36 -5.1 1.7 NNE     178.19
2012-Oct-28 13:01:16 1007.700 10.6 33 -5.1         178.19
2012-Oct-28 14:01:13 1007.000 11.8 30 -5.2         178.19
2012-Oct-28 15:01:17 1006.500 13.8 32 -2.7         178.19
2012-Oct-28 16:01:14 1006.400 14.0 31 -2.9         178.19
2012-Oct-28 17:01:11 1006.600 12.1 34 -3.4         178.19
2012-Oct-28 18:01:12 1007.000 8.5 43 -3.5         178.19
2012-Oct-28 19:01:14 1008.000 5.0 61 -1.9         178.19
2012-Oct-28 20:01:13 1008.200 3.2 69 -1.9         178.19
2012-Oct-28 21:01:16 1008.400 2.1 76 -1.7         178.19
2012-Oct-28 22:01:17 1008.800 1.6 79 -1.7         178.19
2012-Oct-28 23:01:16 1009.000 0.5 82 -2.2         178.19

Temperatura Máxima:14°    Temperatura Mínima:
Presión Máxima:1009.000 Hpa    Presión Mínima:1002.300 Hpa


Volver